sensor_id;sensor_type;location;lat;lon;timestamp;pressure;altitude;pressure_sealevel;temperature;humidity
47522;BME280;32291;52.010;4.446;2022-07-17T00:00:59;79036.97;;;-144.67;77.86
47522;BME280;32291;52.010;4.446;2022-07-17T00:02:01;79041.25;;;-144.67;77.94
47522;BME280;32291;52.010;4.446;2022-07-17T00:03:03;79045.53;;;-144.67;78.05
47522;BME280;32291;52.010;4.446;2022-07-17T00:04:05;79036.97;;;-144.67;78.31
47522;BME280;32291;52.010;4.446;2022-07-17T00:05:08;79041.25;;;-144.67;78.23
47522;BME280;32291;52.010;4.446;2022-07-17T00:06:10;79041.25;;;-144.67;78.22
47522;BME280;32291;52.010;4.446;2022-07-17T00:07:14;79043.38;;;-144.67;78.22
47522;BME280;32291;52.010;4.446;2022-07-17T00:08:16;79036.97;;;-144.67;78.12
47522;BME280;32291;52.010;4.446;2022-07-17T00:09:18;79045.53;;;-144.67;78.17
47522;BME280;32291;52.010;4.446;2022-07-17T00:10:20;79049.81;;;-144.67;77.97
47522;BME280;32291;52.010;4.446;2022-07-17T00:11:22;79043.38;;;-144.67;77.97
47522;BME280;32291;52.010;4.446;2022-07-17T00:12:24;79045.53;;;-144.67;78.15
47522;BME280;32291;52.010;4.446;2022-07-17T00:13:26;79045.53;;;-144.67;78.11
47522;BME280;32291;52.010;4.446;2022-07-17T00:14:28;79049.81;;;-144.67;78.13
47522;BME280;32291;52.010;4.446;2022-07-17T00:15:30;79045.53;;;-144.67;78.29
47522;BME280;32291;52.010;4.446;2022-07-17T00:16:33;79058.38;;;-144.67;78.01
47522;BME280;32291;52.010;4.446;2022-07-17T00:17:36;79054.09;;;-144.67;78.12
47522;BME280;32291;52.010;4.446;2022-07-17T00:18:38;79056.22;;;-144.67;78.22
47522;BME280;32291;52.010;4.446;2022-07-17T00:19:41;79062.66;;;-144.67;78.45
47522;BME280;32291;52.010;4.446;2022-07-17T00:20:43;79064.78;;;-144.67;78.46
47522;BME280;32291;52.010;4.446;2022-07-17T00:21:45;79069.06;;;-144.67;78.53
47522;BME280;32291;52.010;4.446;2022-07-17T00:22:47;79071.22;;;-144.67;78.81
47522;BME280;32291;52.010;4.446;2022-07-17T00:23:50;79071.22;;;-144.67;78.85
47522;BME280;32291;52.010;4.446;2022-07-17T00:24:52;79069.06;;;-144.67;78.84
47522;BME280;32291;52.010;4.446;2022-07-17T00:25:54;79069.06;;;-144.67;78.96
47522;BME280;32291;52.010;4.446;2022-07-17T00:26:56;79069.06;;;-144.67;79.03
47522;BME280;32291;52.010;4.446;2022-07-17T00:27:59;79066.94;;;-144.67;79.17
47522;BME280;32291;52.010;4.446;2022-07-17T00:29:03;79066.94;;;-144.67;79.11
47522;BME280;32291;52.010;4.446;2022-07-17T00:30:06;79062.66;;;-144.67;79.27
47522;BME280;32291;52.010;4.446;2022-07-17T00:31:09;79071.22;;;-144.67;79.17
47522;BME280;32291;52.010;4.446;2022-07-17T00:32:11;79060.50;;;-144.67;79.31
47522;BME280;32291;52.010;4.446;2022-07-17T00:33:13;79062.66;;;-144.67;79.36
47522;BME280;32291;52.010;4.446;2022-07-17T00:34:15;79060.50;;;-144.67;79.07
47522;BME280;32291;52.010;4.446;2022-07-17T00:35:16;79060.50;;;-144.67;79.21
47522;BME280;32291;52.010;4.446;2022-07-17T00:36:18;79054.09;;;-144.67;79.25
47522;BME280;32291;52.010;4.446;2022-07-17T00:37:20;79058.38;;;-144.67;79.34
47522;BME280;32291;52.010;4.446;2022-07-17T00:38:23;79058.38;;;-144.67;79.01
47522;BME280;32291;52.010;4.446;2022-07-17T00:39:24;79054.09;;;-144.67;79.16
47522;BME280;32291;52.010;4.446;2022-07-17T00:40:27;79058.38;;;-144.67;78.80
47522;BME280;32291;52.010;4.446;2022-07-17T00:41:29;79056.22;;;-144.67;79.00
47522;BME280;32291;52.010;4.446;2022-07-17T00:42:31;79058.38;;;-144.67;78.92
47522;BME280;32291;52.010;4.446;2022-07-17T00:43:33;79062.66;;;-144.67;78.76
47522;BME280;32291;52.010;4.446;2022-07-17T00:44:36;79062.66;;;-144.67;78.89
47522;BME280;32291;52.010;4.446;2022-07-17T00:45:38;79066.94;;;-144.67;79.11
47522;BME280;32291;52.010;4.446;2022-07-17T00:46:41;79064.78;;;-144.67;79.01
47522;BME280;32291;52.010;4.446;2022-07-17T00:48:01;79064.78;;;-144.67;79.18
47522;BME280;32291;52.010;4.446;2022-07-17T00:49:06;79062.66;;;-144.67;79.32
47522;BME280;32291;52.010;4.446;2022-07-17T00:50:08;79060.50;;;-144.67;79.39
47522;BME280;32291;52.010;4.446;2022-07-17T00:51:10;79060.50;;;-144.67;79.60
47522;BME280;32291;52.010;4.446;2022-07-17T00:52:14;79062.66;;;-144.67;79.55
47522;BME280;32291;52.010;4.446;2022-07-17T00:53:18;79058.38;;;-144.67;79.45
47522;BME280;32291;52.010;4.446;2022-07-17T00:54:21;79056.22;;;-144.67;79.55
47522;BME280;32291;52.010;4.446;2022-07-17T00:55:25;79058.38;;;-144.67;79.63
47522;BME280;32291;52.010;4.446;2022-07-17T00:56:28;79058.38;;;-144.67;79.48
47522;BME280;32291;52.010;4.446;2022-07-17T00:57:31;79049.81;;;-144.67;79.50
47522;BME280;32291;52.010;4.446;2022-07-17T00:58:36;79047.66;;;-144.67;79.57
47522;BME280;32291;52.010;4.446;2022-07-17T00:59:42;79049.81;;;-144.67;79.65
47522;BME280;32291;52.010;4.446;2022-07-17T01:00:48;79051.94;;;-144.67;79.66
47522;BME280;32291;52.010;4.446;2022-07-17T01:01:50;79049.81;;;-144.67;79.77
47522;BME280;32291;52.010;4.446;2022-07-17T01:02:54;79043.38;;;-144.67;79.68
47522;BME280;32291;52.010;4.446;2022-07-17T01:03:56;79049.81;;;-144.67;79.82
47522;BME280;32291;52.010;4.446;2022-07-17T01:04:59;79041.25;;;-144.67;80.12
47522;BME280;32291;52.010;4.446;2022-07-17T01:06:02;79045.53;;;-144.67;80.06
47522;BME280;32291;52.010;4.446;2022-07-17T01:07:07;79041.25;;;-144.67;80.06
47522;BME280;32291;52.010;4.446;2022-07-17T01:08:09;79041.25;;;-144.67;80.15
47522;BME280;32291;52.010;4.446;2022-07-17T01:09:12;79045.53;;;-144.67;80.28
47522;BME280;32291;52.010;4.446;2022-07-17T01:10:15;79049.81;;;-144.67;80.21
47522;BME280;32291;52.010;4.446;2022-07-17T01:11:19;79049.81;;;-144.67;80.43
47522;BME280;32291;52.010;4.446;2022-07-17T01:12:24;79049.81;;;-144.67;80.39
47522;BME280;32291;52.010;4.446;2022-07-17T01:13:27;79049.81;;;-144.67;80.38
47522;BME280;32291;52.010;4.446;2022-07-17T01:14:29;79054.09;;;-144.67;80.45
47522;BME280;32291;52.010;4.446;2022-07-17T01:15:36;79054.09;;;-144.67;80.62
47522;BME280;32291;52.010;4.446;2022-07-17T01:16:40;79054.09;;;-144.67;80.49
47522;BME280;32291;52.010;4.446;2022-07-17T01:17:43;79058.38;;;-144.67;80.66
47522;BME280;32291;52.010;4.446;2022-07-17T01:18:46;79062.66;;;-144.67;80.66
47522;BME280;32291;52.010;4.446;2022-07-17T01:19:48;79058.38;;;-144.67;80.80
47522;BME280;32291;52.010;4.446;2022-07-17T01:20:50;79062.66;;;-144.67;80.80
47522;BME280;32291;52.010;4.446;2022-07-17T01:21:53;79060.50;;;-144.67;80.85
47522;BME280;32291;52.010;4.446;2022-07-17T01:22:55;79066.94;;;-144.67;81.00
47522;BME280;32291;52.010;4.446;2022-07-17T01:23:57;79062.66;;;-144.67;81.04
47522;BME280;32291;52.010;4.446;2022-07-17T01:24:59;79062.66;;;-144.67;80.93
47522;BME280;32291;52.010;4.446;2022-07-17T01:26:02;79069.06;;;-144.67;81.01
47522;BME280;32291;52.010;4.446;2022-07-17T01:27:05;79069.06;;;-144.67;81.13
47522;BME280;32291;52.010;4.446;2022-07-17T01:28:08;79075.50;;;-144.67;81.11
47522;BME280;32291;52.010;4.446;2022-07-17T01:29:13;79069.06;;;-144.67;81.39
47522;BME280;32291;52.010;4.446;2022-07-17T01:30:15;79073.34;;;-144.67;81.29
47522;BME280;32291;52.010;4.446;2022-07-17T01:31:17;79077.66;;;-144.67;81.36
47522;BME280;32291;52.010;4.446;2022-07-17T01:32:30;79079.78;;;-144.67;81.52
47522;BME280;32291;52.010;4.446;2022-07-17T01:33:36;79081.94;;;-144.67;81.59
47522;BME280;32291;52.010;4.446;2022-07-17T01:34:38;79075.50;;;-144.67;81.70
47522;BME280;32291;52.010;4.446;2022-07-17T01:35:40;79079.78;;;-144.67;81.72
47522;BME280;32291;52.010;4.446;2022-07-17T01:36:42;79077.66;;;-144.67;81.69
47522;BME280;32291;52.010;4.446;2022-07-17T01:37:45;79086.22;;;-144.67;81.62
47522;BME280;32291;52.010;4.446;2022-07-17T01:38:47;79075.50;;;-144.67;81.76
47522;BME280;32291;52.010;4.446;2022-07-17T01:39:50;79079.78;;;-144.67;81.83
47522;BME280;32291;52.010;4.446;2022-07-17T01:40:55;79088.34;;;-144.67;81.65
47522;BME280;32291;52.010;4.446;2022-07-17T01:41:56;79088.34;;;-144.67;81.91
47522;BME280;32291;52.010;4.446;2022-07-17T01:42:58;79084.06;;;-144.67;81.83
47522;BME280;32291;52.010;4.446;2022-07-17T01:44:01;79079.78;;;-144.67;82.07
47522;BME280;32291;52.010;4.446;2022-07-17T01:45:06;79084.06;;;-144.67;82.07
47522;BME280;32291;52.010;4.446;2022-07-17T01:46:09;79075.50;;;-144.67;82.12
47522;BME280;32291;52.010;4.446;2022-07-17T01:47:13;79079.78;;;-144.67;82.07
47522;BME280;32291;52.010;4.446;2022-07-17T01:48:28;79086.22;;;-144.67;82.50
47522;BME280;32291;52.010;4.446;2022-07-17T01:49:31;79086.22;;;-144.67;82.29
47522;BME280;32291;52.010;4.446;2022-07-17T01:50:33;79096.91;;;-144.67;82.37
47522;BME280;32291;52.010;4.446;2022-07-17T01:51:36;79092.63;;;-144.67;82.30
47522;BME280;32291;52.010;4.446;2022-07-17T01:52:40;79096.91;;;-144.67;82.44
47522;BME280;32291;52.010;4.446;2022-07-17T01:53:43;79096.91;;;-144.67;82.58
47522;BME280;32291;52.010;4.446;2022-07-17T01:54:45;79101.19;;;-144.67;82.94
47522;BME280;32291;52.010;4.446;2022-07-17T01:55:48;79107.63;;;-144.67;82.70
47522;BME280;32291;52.010;4.446;2022-07-17T01:56:50;79107.63;;;-144.67;82.74
47522;BME280;32291;52.010;4.446;2022-07-17T01:57:52;79118.34;;;-144.67;82.74
47522;BME280;32291;52.010;4.446;2022-07-17T01:58:54;79118.34;;;-144.67;82.99
47522;BME280;32291;52.010;4.446;2022-07-17T01:59:56;79122.63;;;-144.67;83.50
47522;BME280;32291;52.010;4.446;2022-07-17T02:00:58;79124.75;;;-144.67;83.66
47522;BME280;32291;52.010;4.446;2022-07-17T02:02:02;79122.63;;;-144.67;83.57
47522;BME280;32291;52.010;4.446;2022-07-17T02:03:06;79131.19;;;-144.67;83.58
47522;BME280;32291;52.010;4.446;2022-07-17T02:04:08;79133.31;;;-144.67;83.59
47522;BME280;32291;52.010;4.446;2022-07-17T02:05:09;79129.03;;;-144.67;83.79
47522;BME280;32291;52.010;4.446;2022-07-17T02:06:11;79135.47;;;-144.67;83.76
47522;BME280;32291;52.010;4.446;2022-07-17T02:07:14;79135.47;;;-144.67;83.93
47522;BME280;32291;52.010;4.446;2022-07-17T02:08:16;79135.47;;;-144.67;84.13
47522;BME280;32291;52.010;4.446;2022-07-17T02:09:18;79139.75;;;-144.67;84.19
47522;BME280;32291;52.010;4.446;2022-07-17T02:10:20;79131.19;;;-144.67;84.49
47522;BME280;32291;52.010;4.446;2022-07-17T02:11:22;79131.19;;;-144.67;84.74
47522;BME280;32291;52.010;4.446;2022-07-17T02:12:24;79131.19;;;-144.67;84.96
47522;BME280;32291;52.010;4.446;2022-07-17T02:13:26;79129.03;;;-144.67;84.96
47522;BME280;32291;52.010;4.446;2022-07-17T02:14:28;79131.19;;;-144.67;84.97
47522;BME280;32291;52.010;4.446;2022-07-17T02:15:30;79126.91;;;-144.67;85.08
47522;BME280;32291;52.010;4.446;2022-07-17T02:16:32;79133.31;;;-144.67;85.08
47522;BME280;32291;52.010;4.446;2022-07-17T02:17:35;79131.19;;;-144.67;85.11
47522;BME280;32291;52.010;4.446;2022-07-17T02:18:37;79135.47;;;-144.67;85.33
47522;BME280;32291;52.010;4.446;2022-07-17T02:19:39;79135.47;;;-144.67;85.32
47522;BME280;32291;52.010;4.446;2022-07-17T02:20:40;79137.59;;;-144.67;85.44
47522;BME280;32291;52.010;4.446;2022-07-17T02:21:43;79137.59;;;-144.67;85.40
47522;BME280;32291;52.010;4.446;2022-07-17T02:22:46;79135.47;;;-144.67;85.50
47522;BME280;32291;52.010;4.446;2022-07-17T02:23:48;79133.31;;;-144.67;85.64
47522;BME280;32291;52.010;4.446;2022-07-17T02:24:49;79135.47;;;-144.67;85.58
47522;BME280;32291;52.010;4.446;2022-07-17T02:25:51;79141.88;;;-144.67;85.61
47522;BME280;32291;52.010;4.446;2022-07-17T02:26:53;79150.47;;;-144.67;85.89
47522;BME280;32291;52.010;4.446;2022-07-17T02:27:56;79156.88;;;-144.67;86.22
47522;BME280;32291;52.010;4.446;2022-07-17T02:28:57;79163.31;;;-144.67;86.28
47522;BME280;32291;52.010;4.446;2022-07-17T02:30:04;79165.44;;;-144.67;86.55
47522;BME280;32291;52.010;4.446;2022-07-17T02:31:08;79178.28;;;-144.67;86.59
47522;BME280;32291;52.010;4.446;2022-07-17T02:32:09;79180.44;;;-144.67;86.86
47522;BME280;32291;52.010;4.446;2022-07-17T02:33:12;79182.56;;;-144.67;87.02
47522;BME280;32291;52.010;4.446;2022-07-17T02:34:14;79174.00;;;-144.67;87.44
47522;BME280;32291;52.010;4.446;2022-07-17T02:35:15;79178.28;;;-144.67;87.65
47522;BME280;32291;52.010;4.446;2022-07-17T02:36:17;79182.56;;;-144.67;87.88
47522;BME280;32291;52.010;4.446;2022-07-17T02:37:19;79178.28;;;-144.67;87.63
47522;BME280;32291;52.010;4.446;2022-07-17T02:38:21;79186.84;;;-144.67;87.66
47522;BME280;32291;52.010;4.446;2022-07-17T02:39:23;79186.84;;;-144.67;87.74
47522;BME280;32291;52.010;4.446;2022-07-17T02:40:25;79193.28;;;-144.67;87.78
47522;BME280;32291;52.010;4.446;2022-07-17T02:41:27;79197.56;;;-144.67;88.07
47522;BME280;32291;52.010;4.446;2022-07-17T02:42:30;79197.56;;;-144.67;88.07
47522;BME280;32291;52.010;4.446;2022-07-17T02:43:33;79204.00;;;-144.67;88.46
47522;BME280;32291;52.010;4.446;2022-07-17T02:44:35;79204.00;;;-144.67;88.61
47522;BME280;32291;52.010;4.446;2022-07-17T02:45:37;79199.72;;;-144.67;88.76
47522;BME280;32291;52.010;4.446;2022-07-17T02:46:38;79204.00;;;-144.67;88.88
47522;BME280;32291;52.010;4.446;2022-07-17T02:47:41;79206.13;;;-144.67;88.94
47522;BME280;32291;52.010;4.446;2022-07-17T02:48:44;79204.00;;;-144.67;89.12
47522;BME280;32291;52.010;4.446;2022-07-17T02:49:47;79206.13;;;-144.67;89.19
47522;BME280;32291;52.010;4.446;2022-07-17T02:50:49;79204.00;;;-144.67;89.38
47522;BME280;32291;52.010;4.446;2022-07-17T02:51:51;79197.56;;;-144.67;89.29
47522;BME280;32291;52.010;4.446;2022-07-17T02:52:53;79193.28;;;-144.67;89.19
47522;BME280;32291;52.010;4.446;2022-07-17T02:53:55;79195.44;;;-144.67;89.29
47522;BME280;32291;52.010;4.446;2022-07-17T02:54:57;79195.44;;;-144.67;89.40
47522;BME280;32291;52.010;4.446;2022-07-17T02:55:59;79199.72;;;-144.67;89.38
47522;BME280;32291;52.010;4.446;2022-07-17T02:57:01;79199.72;;;-144.67;89.23
47522;BME280;32291;52.010;4.446;2022-07-17T02:58:03;79204.00;;;-144.67;89.31
47522;BME280;32291;52.010;4.446;2022-07-17T02:59:05;79212.56;;;-144.67;89.38
47522;BME280;32291;52.010;4.446;2022-07-17T03:00:11;79208.28;;;-144.67;89.41
47522;BME280;32291;52.010;4.446;2022-07-17T03:01:14;79206.13;;;-144.67;89.62
47522;BME280;32291;52.010;4.446;2022-07-17T03:02:16;79208.28;;;-144.67;89.84
47522;BME280;32291;52.010;4.446;2022-07-17T03:03:18;79208.28;;;-144.67;89.85
47522;BME280;32291;52.010;4.446;2022-07-17T03:04:23;79208.28;;;-144.67;89.95
47522;BME280;32291;52.010;4.446;2022-07-17T03:05:25;79208.28;;;-144.67;89.94
47522;BME280;32291;52.010;4.446;2022-07-17T03:06:27;79206.13;;;-144.67;90.03
47522;BME280;32291;52.010;4.446;2022-07-17T03:07:29;79206.13;;;-144.67;90.18
47522;BME280;32291;52.010;4.446;2022-07-17T03:08:31;79195.44;;;-144.67;90.25
47522;BME280;32291;52.010;4.446;2022-07-17T03:09:34;79208.28;;;-144.67;90.17
47522;BME280;32291;52.010;4.446;2022-07-17T03:10:36;79208.28;;;-144.67;90.11
47522;BME280;32291;52.010;4.446;2022-07-17T03:11:38;79204.00;;;-144.67;90.22
47522;BME280;32291;52.010;4.446;2022-07-17T03:12:40;79214.69;;;-144.67;90.16
47522;BME280;32291;52.010;4.446;2022-07-17T03:13:43;79214.69;;;-144.67;90.21
47522;BME280;32291;52.010;4.446;2022-07-17T03:14:45;79216.84;;;-144.67;90.43
47522;BME280;32291;52.010;4.446;2022-07-17T03:15:47;79214.69;;;-144.67;90.72
47522;BME280;32291;52.010;4.446;2022-07-17T03:16:49;79218.97;;;-144.67;90.79
47522;BME280;32291;52.010;4.446;2022-07-17T03:17:52;79218.97;;;-144.67;90.84
47522;BME280;32291;52.010;4.446;2022-07-17T03:18:54;79223.25;;;-144.67;90.95
47522;BME280;32291;52.010;4.446;2022-07-17T03:19:56;79221.13;;;-144.67;91.08
47522;BME280;32291;52.010;4.446;2022-07-17T03:20:58;79221.13;;;-144.67;91.13
47522;BME280;32291;52.010;4.446;2022-07-17T03:22:00;79227.56;;;-144.67;91.01
47522;BME280;32291;52.010;4.446;2022-07-17T03:23:02;79227.56;;;-144.67;91.01
47522;BME280;32291;52.010;4.446;2022-07-17T03:24:05;79229.69;;;-144.67;91.10
47522;BME280;32291;52.010;4.446;2022-07-17T03:25:08;79231.84;;;-144.67;91.10
47522;BME280;32291;52.010;4.446;2022-07-17T03:26:10;79225.41;;;-144.67;91.06
47522;BME280;32291;52.010;4.446;2022-07-17T03:27:12;79227.56;;;-144.67;91.14
47522;BME280;32291;52.010;4.446;2022-07-17T03:28:14;79225.41;;;-144.67;91.12
47522;BME280;32291;52.010;4.446;2022-07-17T03:29:16;79229.69;;;-144.67;91.15
47522;BME280;32291;52.010;4.446;2022-07-17T03:30:18;79221.13;;;-144.67;91.03
47522;BME280;32291;52.010;4.446;2022-07-17T03:31:20;79227.56;;;-144.67;90.96
47522;BME280;32291;52.010;4.446;2022-07-17T03:32:23;79225.41;;;-144.67;91.23
47522;BME280;32291;52.010;4.446;2022-07-17T03:33:24;79233.97;;;-144.67;91.35
47522;BME280;32291;52.010;4.446;2022-07-17T03:34:27;79225.41;;;-144.67;91.17
47522;BME280;32291;52.010;4.446;2022-07-17T03:35:29;79229.69;;;-144.67;91.14
47522;BME280;32291;52.010;4.446;2022-07-17T03:36:31;79233.97;;;-144.67;91.08
47522;BME280;32291;52.010;4.446;2022-07-17T03:37:33;79227.56;;;-144.67;91.27
47522;BME280;32291;52.010;4.446;2022-07-17T03:38:35;79225.41;;;-144.67;91.26
47522;BME280;32291;52.010;4.446;2022-07-17T03:39:39;79225.41;;;-144.67;91.21
47522;BME280;32291;52.010;4.446;2022-07-17T03:40:41;79221.13;;;-144.67;91.10
47522;BME280;32291;52.010;4.446;2022-07-17T03:41:43;79221.13;;;-144.67;91.07
47522;BME280;32291;52.010;4.446;2022-07-17T03:42:45;79218.97;;;-144.67;90.94
47522;BME280;32291;52.010;4.446;2022-07-17T03:43:47;79216.84;;;-144.67;91.03
47522;BME280;32291;52.010;4.446;2022-07-17T03:44:49;79221.13;;;-144.67;90.86
47522;BME280;32291;52.010;4.446;2022-07-17T03:45:51;79221.13;;;-144.67;90.86
47522;BME280;32291;52.010;4.446;2022-07-17T03:46:53;79223.25;;;-144.67;90.72
47522;BME280;32291;52.010;4.446;2022-07-17T03:47:55;79216.84;;;-144.67;90.55
47522;BME280;32291;52.010;4.446;2022-07-17T03:48:57;79218.97;;;-144.67;90.67
47522;BME280;32291;52.010;4.446;2022-07-17T03:49:59;79221.13;;;-144.67;90.59
47522;BME280;32291;52.010;4.446;2022-07-17T03:51:01;79221.13;;;-144.67;90.60
47522;BME280;32291;52.010;4.446;2022-07-17T03:52:03;79221.13;;;-144.67;90.42
47522;BME280;32291;52.010;4.446;2022-07-17T03:53:06;79216.84;;;-144.67;90.45
47522;BME280;32291;52.010;4.446;2022-07-17T03:54:08;79227.56;;;-144.67;90.46
47522;BME280;32291;52.010;4.446;2022-07-17T03:55:10;79223.25;;;-144.67;90.53
47522;BME280;32291;52.010;4.446;2022-07-17T03:56:12;79223.25;;;-144.67;90.66
47522;BME280;32291;52.010;4.446;2022-07-17T03:57:14;79223.25;;;-144.67;90.46
47522;BME280;32291;52.010;4.446;2022-07-17T03:58:16;79225.41;;;-144.67;90.54
47522;BME280;32291;52.010;4.446;2022-07-17T03:59:17;79225.41;;;-144.67;90.63
47522;BME280;32291;52.010;4.446;2022-07-17T04:00:20;79225.41;;;-144.67;90.66
47522;BME280;32291;52.010;4.446;2022-07-17T04:01:22;79227.56;;;-144.67;90.64
47522;BME280;32291;52.010;4.446;2022-07-17T04:02:24;79229.69;;;-144.67;90.71
47522;BME280;32291;52.010;4.446;2022-07-17T04:03:25;79229.69;;;-144.67;90.57
47522;BME280;32291;52.010;4.446;2022-07-17T04:04:27;79229.69;;;-144.67;90.59
47522;BME280;32291;52.010;4.446;2022-07-17T04:05:30;79233.97;;;-144.67;90.83
47522;BME280;32291;52.010;4.446;2022-07-17T04:06:32;79240.41;;;-144.67;90.92
47522;BME280;32291;52.010;4.446;2022-07-17T04:07:34;79238.25;;;-144.67;91.11
47522;BME280;32291;52.010;4.446;2022-07-17T04:08:36;79233.97;;;-144.67;91.17
47522;BME280;32291;52.010;4.446;2022-07-17T04:09:38;79242.53;;;-144.67;91.21
47522;BME280;32291;52.010;4.446;2022-07-17T04:10:40;79246.81;;;-144.67;91.18
47522;BME280;32291;52.010;4.446;2022-07-17T04:11:42;79248.97;;;-144.67;91.02
47522;BME280;32291;52.010;4.446;2022-07-17T04:12:44;79244.69;;;-144.67;91.02
47522;BME280;32291;52.010;4.446;2022-07-17T04:13:47;79246.81;;;-144.67;91.10
47522;BME280;32291;52.010;4.446;2022-07-17T04:14:49;79246.81;;;-144.67;91.05
47522;BME280;32291;52.010;4.446;2022-07-17T04:15:52;79242.53;;;-144.67;91.16
47522;BME280;32291;52.010;4.446;2022-07-17T04:16:54;79240.41;;;-144.67;91.63
47522;BME280;32291;52.010;4.446;2022-07-17T04:17:56;79238.25;;;-144.67;92.33
47522;BME280;32291;52.010;4.446;2022-07-17T04:18:58;79229.69;;;-144.67;92.32
47522;BME280;32291;52.010;4.446;2022-07-17T04:20:01;79229.69;;;-144.67;92.31
47522;BME280;32291;52.010;4.446;2022-07-17T04:21:08;79227.56;;;-144.67;92.27
47522;BME280;32291;52.010;4.446;2022-07-17T04:22:11;79229.69;;;-144.67;92.25
47522;BME280;32291;52.010;4.446;2022-07-17T04:23:14;79229.69;;;-144.67;92.15
47522;BME280;32291;52.010;4.446;2022-07-17T04:24:16;79233.97;;;-144.67;92.09
47522;BME280;32291;52.010;4.446;2022-07-17T04:25:18;79229.69;;;-144.67;92.32
47522;BME280;32291;52.010;4.446;2022-07-17T04:26:21;79233.97;;;-144.67;92.18
47522;BME280;32291;52.010;4.446;2022-07-17T04:27:22;79229.69;;;-144.67;92.10
47522;BME280;32291;52.010;4.446;2022-07-17T04:28:24;79238.25;;;-144.67;92.47
47522;BME280;32291;52.010;4.446;2022-07-17T04:29:26;79233.97;;;-144.67;92.34
47522;BME280;32291;52.010;4.446;2022-07-17T04:30:28;79236.13;;;-144.67;92.42
47522;BME280;32291;52.010;4.446;2022-07-17T04:31:30;79238.25;;;-144.67;92.69
47522;BME280;32291;52.010;4.446;2022-07-17T04:32:32;79238.25;;;-144.67;93.16
47522;BME280;32291;52.010;4.446;2022-07-17T04:33:34;79236.13;;;-144.67;93.09
47522;BME280;32291;52.010;4.446;2022-07-17T04:34:36;79229.69;;;-144.67;93.33
47522;BME280;32291;52.010;4.446;2022-07-17T04:35:39;79229.69;;;-144.67;93.20
47522;BME280;32291;52.010;4.446;2022-07-17T04:36:41;79223.25;;;-144.67;93.29
47522;BME280;32291;52.010;4.446;2022-07-17T04:37:44;79223.25;;;-144.67;93.19
47522;BME280;32291;52.010;4.446;2022-07-17T04:38:46;79221.13;;;-144.67;93.25
47522;BME280;32291;52.010;4.446;2022-07-17T04:39:47;79216.84;;;-144.67;93.23
47522;BME280;32291;52.010;4.446;2022-07-17T04:40:49;79216.84;;;-144.67;93.10
47522;BME280;32291;52.010;4.446;2022-07-17T04:41:51;79214.69;;;-144.67;93.10
47522;BME280;32291;52.010;4.446;2022-07-17T04:42:54;79208.28;;;-144.67;92.88
47522;BME280;32291;52.010;4.446;2022-07-17T04:43:56;79208.28;;;-144.67;93.07
47522;BME280;32291;52.010;4.446;2022-07-17T04:44:58;79214.69;;;-144.67;92.96
47522;BME280;32291;52.010;4.446;2022-07-17T04:46:00;79201.84;;;-144.67;92.94
47522;BME280;32291;52.010;4.446;2022-07-17T04:47:02;79195.44;;;-144.67;92.94
47522;BME280;32291;52.010;4.446;2022-07-17T04:48:04;79195.44;;;-144.67;93.02
47522;BME280;32291;52.010;4.446;2022-07-17T04:49:07;79191.16;;;-144.67;93.03
47522;BME280;32291;52.010;4.446;2022-07-17T04:50:10;79195.44;;;-144.67;92.86
47522;BME280;32291;52.010;4.446;2022-07-17T04:51:12;79191.16;;;-144.67;92.82
47522;BME280;32291;52.010;4.446;2022-07-17T04:52:14;79189.00;;;-144.67;92.61
47522;BME280;32291;52.010;4.446;2022-07-17T04:53:16;79191.16;;;-144.67;92.63
47522;BME280;32291;52.010;4.446;2022-07-17T04:54:19;79191.16;;;-144.67;92.42
47522;BME280;32291;52.010;4.446;2022-07-17T04:55:21;79186.84;;;-144.67;92.53
47522;BME280;32291;52.010;4.446;2022-07-17T04:56:23;79186.84;;;-144.67;92.53
47522;BME280;32291;52.010;4.446;2022-07-17T04:57:25;79180.44;;;-144.67;92.58
47522;BME280;32291;52.010;4.446;2022-07-17T04:58:27;79184.72;;;-144.67;92.60
47522;BME280;32291;52.010;4.446;2022-07-17T04:59:29;79174.00;;;-144.67;92.48
47522;BME280;32291;52.010;4.446;2022-07-17T05:00:31;79171.88;;;-144.67;92.35
47522;BME280;32291;52.010;4.446;2022-07-17T05:01:33;79174.00;;;-144.67;92.28
47522;BME280;32291;52.010;4.446;2022-07-17T05:02:35;79178.28;;;-144.67;92.20
47522;BME280;32291;52.010;4.446;2022-07-17T05:03:37;79169.72;;;-144.67;92.15
47522;BME280;32291;52.010;4.446;2022-07-17T05:04:40;79176.16;;;-144.67;92.07
47522;BME280;32291;52.010;4.446;2022-07-17T05:05:42;79174.00;;;-144.67;91.87
47522;BME280;32291;52.010;4.446;2022-07-17T05:06:44;79165.44;;;-144.67;91.56
47522;BME280;32291;52.010;4.446;2022-07-17T05:07:46;79165.44;;;-144.67;91.63
47522;BME280;32291;52.010;4.446;2022-07-17T05:08:48;79163.31;;;-144.67;91.56
47522;BME280;32291;52.010;4.446;2022-07-17T05:09:50;79159.03;;;-144.67;91.38
47522;BME280;32291;52.010;4.446;2022-07-17T05:10:52;79154.75;;;-144.67;91.34
47522;BME280;32291;52.010;4.446;2022-07-17T05:11:54;79156.88;;;-144.67;91.08
47522;BME280;32291;52.010;4.446;2022-07-17T05:12:56;79148.31;;;-144.67;90.74
47522;BME280;32291;52.010;4.446;2022-07-17T05:13:57;79156.88;;;-144.67;90.79
47522;BME280;32291;52.010;4.446;2022-07-17T05:15:00;79152.59;;;-144.67;90.54
47522;BME280;32291;52.010;4.446;2022-07-17T05:16:03;79154.75;;;-144.67;90.57
47522;BME280;32291;52.010;4.446;2022-07-17T05:17:06;79146.16;;;-144.67;90.31
47522;BME280;32291;52.010;4.446;2022-07-17T05:18:08;79146.16;;;-144.67;90.13
47522;BME280;32291;52.010;4.446;2022-07-17T05:19:10;79137.59;;;-144.67;90.15
47522;BME280;32291;52.010;4.446;2022-07-17T05:20:12;79144.03;;;-144.67;90.03
47522;BME280;32291;52.010;4.446;2022-07-17T05:21:14;79144.03;;;-144.67;89.75
47522;BME280;32291;52.010;4.446;2022-07-17T05:22:16;79141.88;;;-144.67;89.74
47522;BME280;32291;52.010;4.446;2022-07-17T05:23:18;79139.75;;;-144.67;89.42